F/V St-alour — FGTB — position and weather

sailwx.info

Track history (hours):
 
Tides and Currents Weather Stations Pressure Air Temp Water Temp Dewpoint Dewpoint Depression Visibility Wind Speed Wind Dir Waves Ship Positions

F/V St-alour

Last reported at 2018-Jun-21 05:41 UTC. Time now 2018-Jun-23 12:23 UTC.
Position N 47°15' W 005°19'.

Length 24 m.

Type: Fishing. MMSI: 227397000.

Date/timePositionNaut miles runAvg speedWind from/ knotsBaromVisibWave heightAir tempDewpointWater temp
2018-Jun-21 05:41N 47°15' W 005°19'5 2.7
2018-Jun-21 03:49N 47°15' W 005°12'5 3.4
2018-Jun-21 02:18N 47°20' W 005°07'1 2.8
2018-Jun-21 01:49N 47°21' W 005°06'3 3.1
2018-Jun-21 00:45N 47°24' W 005°08'17 2.3
2018-Jun-20 17:18N 47°18' W 005°32'1 3.3
2018-Jun-20 17:00N 47°17' W 005°32'17 1.8
2018-Jun-20 07:28N 47°17' W 005°07'2 2.9
2018-Jun-20 06:44N 47°17' W 005°04'1 3.0
2018-Jun-20 06:14N 47°17' W 005°02'6 3.0
2018-Jun-20 04:24N 47°16' W 004°53'1 3.3
2018-Jun-20 03:58N 47°16' W 004°51'3 3.5
2018-Jun-20 03:02N 47°13' W 004°48'0 3.7
2018-Jun-20 03:00N 47°13' W 004°48'2 2.7
2018-Jun-20 02:24N 47°11' W 004°50'1 2.0
2018-Jun-20 01:58N 47°11' W 004°51'2 0.9
2018-Jun-19 23:29N 47°13' W 004°48'1 2.6
2018-Jun-19 22:55N 47°11' W 004°49'2 2.7
2018-Jun-19 22:08N 47°09' W 004°49'0 2.2
2018-Jun-19 21:58N 47°09' W 004°49'7 1.8
2018-Jun-19 18:00N 47°02' W 004°50'4 3.5
2018-Jun-19 16:57N 46°59' W 004°53'13 1.0
2018-Jun-19 04:32N 47°12' W 004°53'0 2.8
2018-Jun-19 04:30N 47°12' W 004°53'6 3.0
2018-Jun-19 02:39N 47°07' W 004°49'1 4.1
2018-Jun-19 02:18N 47°05' W 004°50'1 2.7
2018-Jun-19 01:50N 47°04' W 004°50'53 3.2
2018-Jun-18 08:54N 47°49' W 004°08'  
2018-Jun-14 13:44N 47°50' W 004°10'92 8.2
2018-Jun-14 02:33N 47°56' W 006°27'6 8.8
2018-Jun-14 01:53N 47°56' W 006°35'8 8.6
2018-Jun-14 00:58N 47°57' W 006°47'  
Track history (hours):
 
Tides and Currents Weather Stations Pressure Air Temp Water Temp Dewpoint Dewpoint Depression Visibility Wind Speed Wind Dir Waves Ship Positions

F/V St-alour

Last reported at 2018-Jun-21 05:41 UTC. Time now 2018-Jun-23 12:23 UTC.
Position N 47°15' W 005°19'.

Length 24 m.

Type: Fishing. MMSI: 227397000.

Date/timePositionNaut miles runAvg speedWind from/ knotsBaromVisibWave heightAir tempDewpointWater temp
2018-Jun-21 05:41N 47°15' W 005°19'5 2.7
2018-Jun-21 03:49N 47°15' W 005°12'5 3.4
2018-Jun-21 02:18N 47°20' W 005°07'1 2.8
2018-Jun-21 01:49N 47°21' W 005°06'3 3.1
2018-Jun-21 00:45N 47°24' W 005°08'17 2.3
2018-Jun-20 17:18N 47°18' W 005°32'1 3.3
2018-Jun-20 17:00N 47°17' W 005°32'17 1.8
2018-Jun-20 07:28N 47°17' W 005°07'2 2.9
2018-Jun-20 06:44N 47°17' W 005°04'1 3.0
2018-Jun-20 06:14N 47°17' W 005°02'6 3.0
2018-Jun-20 04:24N 47°16' W 004°53'1 3.3
2018-Jun-20 03:58N 47°16' W 004°51'3 3.5
2018-Jun-20 03:02N 47°13' W 004°48'0 3.7
2018-Jun-20 03:00N 47°13' W 004°48'2 2.7
2018-Jun-20 02:24N 47°11' W 004°50'1 2.0
2018-Jun-20 01:58N 47°11' W 004°51'2 0.9
2018-Jun-19 23:29N 47°13' W 004°48'1 2.6
2018-Jun-19 22:55N 47°11' W 004°49'2 2.7
2018-Jun-19 22:08N 47°09' W 004°49'0 2.2
2018-Jun-19 21:58N 47°09' W 004°49'7 1.8
2018-Jun-19 18:00N 47°02' W 004°50'4 3.5
2018-Jun-19 16:57N 46°59' W 004°53'13 1.0
2018-Jun-19 04:32N 47°12' W 004°53'0 2.8
2018-Jun-19 04:30N 47°12' W 004°53'6 3.0
2018-Jun-19 02:39N 47°07' W 004°49'1 4.1
2018-Jun-19 02:18N 47°05' W 004°50'1 2.7
2018-Jun-19 01:50N 47°04' W 004°50'53 3.2
2018-Jun-18 08:54N 47°49' W 004°08'  
2018-Jun-14 13:44N 47°50' W 004°10'92 8.2
2018-Jun-14 02:33N 47°56' W 006°27'6 8.8
2018-Jun-14 01:53N 47°56' W 006°35'8 8.6
2018-Jun-14 00:58N 47°57' W 006°47'  

Dump ship's entire track history